Time;durP1;ratioP1;P1;durP2;ratioP2;P2;SDS_P1;SDS_P2;PMS_P1;PMS_P2;Temp;Humidity;BMP_temperature;BMP_pressure;BME280_temperature;BME280_humidity;BME280_pressure;Samples;Min_cycle;Max_cycle;Signal;HPM_P1;HPM_P2
2021/11/16 00:01:03;;;;;;;80.97;33.72;;;5.90;99.90;;;;;;5059990;28;20029;-63
2021/11/16 00:03:29;;;;;;;80.50;31.83;;;5.90;99.90;;;;;;5060402;28;20025;-63
2021/11/16 00:05:54;;;;;;;76.88;31.20;;;5.90;99.90;;;;;;5040912;28;20037;-63
2021/11/16 00:08:20;;;;;;;79.78;31.77;;;6.00;99.90;;;;;;5059638;28;20662;-63
2021/11/16 00:10:45;;;;;;;76.72;32.72;;;6.00;99.90;;;;;;5024708;28;20043;-63
2021/11/16 00:13:11;;;;;;;81.53;31.30;;;6.00;99.90;;;;;;5059741;28;20040;-63
2021/11/16 00:15:37;;;;;;;72.88;31.65;;;6.00;99.90;;;;;;5060399;28;20141;-63
2021/11/16 00:18:02;;;;;;;76.57;31.02;;;6.00;99.90;;;;;;5059433;28;20033;-63
2021/11/16 00:20:28;;;;;;;76.80;31.67;;;5.80;99.90;;;;;;5059971;28;20033;-63
2021/11/16 00:22:54;;;;;;;78.35;30.77;;;5.80;99.90;;;;;;5059988;28;20067;-63
2021/11/16 00:25:21;;;;;;;85.95;34.47;;;5.70;99.90;;;;;;5060553;28;20040;-63
2021/11/16 00:27:47;;;;;;;80.93;32.60;;;5.80;99.90;;;;;;5059602;28;20036;-63
2021/11/16 00:30:12;;;;;;;76.68;32.17;;;5.90;99.90;;;;;;5058982;28;20107;-63
2021/11/16 00:32:37;;;;;;;85.38;33.03;;;5.90;99.90;;;;;;5060621;28;20040;-63
2021/11/16 00:35:03;;;;;;;85.57;32.97;;;5.80;99.90;;;;;;5060058;28;20935;-63
2021/11/16 00:37:29;;;;;;;82.10;33.38;;;5.90;99.90;;;;;;5041299;28;20039;-63
2021/11/16 00:39:54;;;;;;;84.00;33.85;;;6.00;99.90;;;;;;5060109;28;20032;-63
2021/11/16 00:42:20;;;;;;;82.97;33.40;;;6.00;99.90;;;;;;5059616;28;20028;-63
2021/11/16 00:44:46;;;;;;;91.20;34.15;;;6.00;99.90;;;;;;5060164;28;20570;-63
2021/11/16 00:47:11;;;;;;;78.30;32.30;;;5.90;99.90;;;;;;5060257;28;20109;-63
2021/11/16 00:49:36;;;;;;;83.75;33.17;;;6.00;99.90;;;;;;5058808;28;20037;-63
2021/11/16 00:52:02;;;;;;;84.88;34.20;;;6.00;99.90;;;;;;5059910;28;20041;-63
2021/11/16 00:54:28;;;;;;;82.65;35.00;;;5.90;99.90;;;;;;5059025;28;20071;-63
2021/11/16 00:56:53;;;;;;;88.57;35.13;;;5.80;99.90;;;;;;5059155;28;20028;-64
2021/11/16 00:59:19;;;;;;;88.30;35.33;;;5.80;99.90;;;;;;5058812;28;20047;-63
2021/11/16 01:01:45;;;;;;;89.53;34.70;;;5.80;99.90;;;;;;5059128;28;20058;-63
2021/11/16 01:04:14;;;;;;;87.85;33.50;;;5.80;99.90;;;;;;5059624;28;20059;-63
2021/11/16 01:06:40;;;;;;;85.22;32.90;;;5.80;99.90;;;;;;5057398;28;20033;-63
2021/11/16 01:09:06;;;;;;;83.82;33.05;;;5.80;99.90;;;;;;5059153;28;20040;-63
2021/11/16 01:11:31;;;;;;;89.85;34.67;;;5.70;99.90;;;;;;5059608;28;20063;-63
2021/11/16 01:13:56;;;;;;;83.30;33.70;;;5.70;99.90;;;;;;5058960;28;20033;-63
2021/11/16 01:16:22;;;;;;;80.15;33.33;;;5.70;99.90;;;;;;5059393;28;20043;-63
2021/11/16 01:18:47;;;;;;;86.57;33.80;;;5.70;99.90;;;;;;5058022;28;20483;-64
2021/11/16 01:21:13;;;;;;;82.30;34.58;;;5.70;99.90;;;;;;5066190;28;20024;-63
2021/11/16 01:23:39;;;;;;;90.82;34.42;;;5.70;99.90;;;;;;5059307;28;20492;-63
2021/11/16 01:26:04;;;;;;;87.70;36.00;;;5.70;99.90;;;;;;5058372;28;20043;-63
2021/11/16 01:28:31;;;;;;;88.50;34.25;;;5.70;99.90;;;;;;5059749;28;20132;-63
2021/11/16 01:30:59;;;;;;;85.30;34.67;;;5.70;99.90;;;;;;5058792;28;20036;-64
2021/11/16 01:33:30;;;;;;;91.22;36.58;;;5.80;99.90;;;;;;5056785;28;20368;-63
2021/11/16 01:35:55;;;;;;;98.00;34.05;;;5.80;99.90;;;;;;5059377;28;20036;-63
2021/11/16 01:38:22;;;;;;;90.65;33.97;;;5.80;99.90;;;;;;5058824;28;20406;-63
2021/11/16 01:40:49;;;;;;;85.82;34.83;;;5.70;99.90;;;;;;5058749;28;20079;-63
2021/11/16 01:43:14;;;;;;;88.95;33.10;;;5.60;99.90;;;;;;5058862;28;20597;-63
2021/11/16 01:45:40;;;;;;;101.90;37.85;;;5.60;99.90;;;;;;5059194;28;20040;-63
2021/11/16 01:48:05;;;;;;;86.25;33.38;;;5.60;99.90;;;;;;5040084;28;20173;-63
2021/11/16 01:50:31;;;;;;;87.63;33.25;;;5.70;99.90;;;;;;5040250;28;20029;-63
2021/11/16 01:52:56;;;;;;;93.57;34.90;;;5.80;99.90;;;;;;5058615;28;20072;-64
2021/11/16 01:55:22;;;;;;;90.00;33.63;;;5.80;99.90;;;;;;5058510;28;20032;-63
2021/11/16 01:57:47;;;;;;;92.55;36.42;;;5.80;99.90;;;;;;5057751;28;20037;-63
2021/11/16 02:00:13;;;;;;;98.10;35.45;;;5.80;99.90;;;;;;5057933;28;20021;-63
2021/11/16 02:02:38;;;;;;;95.22;36.70;;;5.80;99.90;;;;;;5057468;28;20135;-63
2021/11/16 02:05:04;;;;;;;94.65;35.53;;;5.80;99.90;;;;;;5064994;28;20035;-63
2021/11/16 02:07:29;;;;;;;89.00;34.65;;;5.70;99.90;;;;;;5058220;28;20040;-64
2021/11/16 02:09:55;;;;;;;94.80;36.78;;;5.80;99.90;;;;;;5057474;28;20086;-63
2021/11/16 02:12:21;;;;;;;99.60;37.60;;;5.60;99.90;;;;;;5058461;28;20468;-63
2021/11/16 02:14:46;;;;;;;88.32;36.20;;;5.60;99.90;;;;;;5058450;28;20753;-63
2021/11/16 02:17:12;;;;;;;92.25;35.50;;;5.60;99.90;;;;;;5058001;28;20028;-63
2021/11/16 02:19:37;;;;;;;101.45;36.60;;;5.40;99.90;;;;;;5058274;28;20028;-63
2021/11/16 02:22:03;;;;;;;89.70;35.20;;;5.50;99.90;;;;;;5058039;28;20024;-63
2021/11/16 02:24:28;;;;;;;103.82;39.47;;;5.60;99.90;;;;;;5040658;28;20079;-63
2021/11/16 02:26:54;;;;;;;109.20;38.78;;;5.60;99.90;;;;;;5058588;28;20063;-63
2021/11/16 02:29:19;;;;;;;99.97;38.80;;;5.70;99.90;;;;;;5040419;28;20566;-63
2021/11/16 02:31:45;;;;;;;95.07;36.85;;;5.70;99.90;;;;;;5040662;28;20112;-63
2021/11/16 02:34:10;;;;;;;95.55;37.75;;;5.60;99.90;;;;;;5058709;28;20032;-63
2021/11/16 02:36:36;;;;;;;101.78;37.85;;;5.60;99.90;;;;;;5058663;28;20036;-63
2021/11/16 02:39:01;;;;;;;93.88;37.75;;;5.70;99.90;;;;;;5058627;28;20101;-63
2021/11/16 02:41:31;;;;;;;101.95;38.42;;;5.70;99.90;;;;;;5057569;28;20054;-63
2021/11/16 02:43:56;;;;;;;98.18;38.78;;;5.70;99.90;;;;;;5058393;28;20063;-63
2021/11/16 02:46:22;;;;;;;96.78;35.63;;;5.60;99.90;;;;;;5058237;28;20139;-63
2021/11/16 02:48:47;;;;;;;101.55;38.35;;;5.60;99.90;;;;;;5057736;28;20043;-63
2021/11/16 02:51:13;;;;;;;98.05;38.95;;;5.60;99.90;;;;;;5058118;28;20135;-63
2021/11/16 02:53:38;;;;;;;108.05;39.45;;;5.50;99.90;;;;;;5039299;28;20071;-63
2021/11/16 02:56:04;;;;;;;103.75;38.60;;;5.40;99.90;;;;;;5056632;28;20021;-63
2021/11/16 02:58:29;;;;;;;96.22;37.78;;;5.40;99.90;;;;;;5056165;28;20043;-63
2021/11/16 03:00:55;;;;;;;100.43;37.22;;;5.40;99.90;;;;;;5056204;28;20039;-63
2021/11/16 03:03:20;;;;;;;106.03;37.95;;;5.50;99.90;;;;;;5056780;28;20039;-63
2021/11/16 03:05:46;;;;;;;96.95;38.13;;;5.50;99.90;;;;;;5056978;28;20039;-63
2021/11/16 03:08:12;;;;;;;110.05;40.88;;;5.50;99.90;;;;;;5057319;28;20036;-63
2021/11/16 03:10:37;;;;;;;107.75;40.60;;;5.50;99.90;;;;;;5055655;28;20041;-63
2021/11/16 03:13:03;;;;;;;102.85;40.22;;;5.60;99.90;;;;;;5038446;28;20182;-63
2021/11/16 03:15:28;;;;;;;105.65;39.90;;;5.60;99.90;;;;;;5038799;28;20049;-63
2021/11/16 03:17:54;;;;;;;104.85;39.70;;;5.50;99.90;;;;;;5036626;28;20030;-63
2021/11/16 03:20:19;;;;;;;99.55;39.05;;;5.60;99.90;;;;;;5038058;28;20041;-63
2021/11/16 03:22:46;;;;;;;98.43;37.95;;;5.50;99.90;;;;;;5056585;28;20123;-64
2021/11/16 03:25:12;;;;;;;105.63;39.28;;;5.50;99.90;;;;;;5055448;28;20693;-63
2021/11/16 03:27:40;;;;;;;106.03;39.10;;;5.40;99.90;;;;;;5038255;28;20048;-63
2021/11/16 03:30:05;;;;;;;103.25;39.20;;;5.50;99.90;;;;;;5055772;28;20115;-63
2021/11/16 03:32:35;;;;;;;99.90;37.97;;;5.50;99.90;;;;;;5056009;28;20033;-63
2021/11/16 03:35:01;;;;;;;108.15;39.45;;;5.50;99.90;;;;;;5057370;28;20135;-63
2021/11/16 03:37:27;;;;;;;105.97;40.25;;;5.50;99.90;;;;;;5056134;28;20119;-63
2021/11/16 03:39:52;;;;;;;99.75;38.55;;;5.40;99.90;;;;;;5056061;28;20036;-63
2021/11/16 03:42:18;;;;;;;100.03;39.17;;;5.50;99.90;;;;;;5056333;28;20052;-63
2021/11/16 03:44:43;;;;;;;100.03;37.85;;;5.40;99.90;;;;;;5057031;28;20032;-63
2021/11/16 03:47:10;;;;;;;97.20;39.10;;;5.30;99.90;;;;;;5056608;28;20555;-63
2021/11/16 03:49:35;;;;;;;98.70;38.28;;;5.20;99.90;;;;;;5054269;28;20411;-63
2021/11/16 03:52:01;;;;;;;103.00;38.80;;;5.30;99.90;;;;;;5056916;28;20064;-63
2021/11/16 03:54:27;;;;;;;107.07;40.60;;;5.30;99.90;;;;;;5055783;28;20617;-63
2021/11/16 03:56:59;;;;;;;103.65;38.47;;;5.30;99.90;;;;;;5037540;28;20127;-63
2021/11/16 03:59:25;;;;;;;96.40;36.83;;;5.30;99.90;;;;;;5057433;28;20045;-63
2021/11/16 04:01:50;;;;;;;103.68;39.55;;;5.30;99.90;;;;;;5056683;28;20035;-63
2021/11/16 04:04:18;;;;;;;106.32;39.50;;;5.20;99.90;;;;;;5057547;28;20024;-63
2021/11/16 04:06:43;;;;;;;99.90;37.90;;;5.20;99.90;;;;;;5057286;28;20032;-63
2021/11/16 04:09:09;;;;;;;98.10;39.22;;;5.30;99.90;;;;;;5056477;28;20090;-63
2021/11/16 04:11:35;;;;;;;107.28;39.80;;;5.30;99.90;;;;;;5057657;28;20037;-63
2021/11/16 04:14:01;;;;;;;93.72;37.88;;;5.40;99.90;;;;;;5057032;28;20068;-63
2021/11/16 04:16:26;;;;;;;104.32;37.95;;;5.40;99.90;;;;;;5057611;28;20099;-63
2021/11/16 04:18:53;;;;;;;109.97;40.38;;;5.40;99.90;;;;;;5038781;28;20016;-63
2021/11/16 04:21:18;;;;;;;106.55;39.10;;;5.40;99.90;;;;;;5057560;28;20041;-63
2021/11/16 04:23:44;;;;;;;105.47;39.38;;;5.40;99.90;;;;;;5057123;28;20920;-63
2021/11/16 04:26:10;;;;;;;107.05;40.30;;;5.40;99.90;;;;;;5056761;28;20075;-63
2021/11/16 04:28:35;;;;;;;126.38;42.70;;;5.50;99.90;;;;;;5057896;28;20444;-63
2021/11/16 04:31:01;;;;;;;112.55;39.47;;;5.50;99.90;;;;;;5060013;28;21179;-63
2021/11/16 04:33:26;;;;;;;110.78;41.70;;;5.50;99.90;;;;;;5042334;28;20048;-63
2021/11/16 04:35:52;;;;;;;110.65;41.70;;;5.40;99.90;;;;;;5059346;28;20828;-63
2021/11/16 04:38:18;;;;;;;113.63;42.15;;;5.40;99.90;;;;;;5059126;28;20044;-63
2021/11/16 04:40:44;;;;;;;104.30;39.30;;;5.40;99.90;;;;;;5042001;28;20570;-64
2021/11/16 04:43:10;;;;;;;113.45;40.88;;;5.30;99.90;;;;;;5040713;28;20124;-63
2021/11/16 04:45:36;;;;;;;111.95;40.88;;;5.30;99.90;;;;;;5060060;28;20040;-63
2021/11/16 04:48:06;;;;;;;113.30;41.58;;;5.30;99.90;;;;;;5060218;28;20029;-63
2021/11/16 05:04:07;;;;;;;100.03;38.58;;;5.30;99.90;;;;;;5058972;28;20040;-63
2021/11/16 05:06:33;;;;;;;93.03;35.25;;;5.30;99.90;;;;;;5059726;28;20036;-63
2021/11/16 05:08:58;;;;;;;94.93;37.08;;;5.30;99.90;;;;;;5058349;28;20800;-63
2021/11/16 05:11:27;;;;;;;98.90;36.95;;;5.30;99.90;;;;;;5059307;28;20040;-63
2021/11/16 05:13:53;;;;;;;106.80;38.92;;;5.30;99.90;;;;;;5056113;28;20044;-63
2021/11/16 05:16:18;;;;;;;105.10;38.60;;;5.20;99.90;;;;;;5058475;28;20032;-63
2021/11/16 05:18:44;;;;;;;110.10;38.53;;;5.30;99.90;;;;;;5059199;28;20573;-63
2021/11/16 05:21:09;;;;;;;111.75;40.13;;;5.30;99.90;;;;;;5058635;28;20837;-63
2021/11/16 05:23:43;;;;;;;99.75;36.40;;;5.30;99.90;;;;;;5058939;28;20890;-63
2021/11/16 05:26:08;;;;;;;94.82;36.17;;;5.30;99.90;;;;;;5058228;28;20841;-63
2021/11/16 05:28:34;;;;;;;102.63;37.10;;;5.30;99.90;;;;;;5058131;28;20035;-63
2021/11/16 05:30:59;;;;;;;98.50;36.33;;;5.30;99.90;;;;;;5057152;28;20036;-63
2021/11/16 05:33:27;;;;;;;97.38;36.28;;;5.30;99.90;;;;;;5058129;28;20036;-63
2021/11/16 05:35:58;;;;;;;101.22;36.47;;;5.40;99.90;;;;;;5059302;28;20044;-63
2021/11/16 05:38:23;;;;;;;95.60;35.83;;;5.40;99.90;;;;;;5023666;28;20028;-63
2021/11/16 05:40:49;;;;;;;97.85;36.75;;;5.40;99.90;;;;;;5057398;28;20863;-63
2021/11/16 05:43:14;;;;;;;91.95;34.35;;;5.40;99.90;;;;;;5059062;28;20028;-63
2021/11/16 05:45:40;;;;;;;95.10;35.85;;;5.40;99.90;;;;;;5057936;28;20506;-63
2021/11/16 05:48:06;;;;;;;92.75;33.72;;;5.50;99.90;;;;;;5058628;28;20063;-63
2021/11/16 05:50:32;;;;;;;89.65;35.00;;;5.50;99.90;;;;;;5059141;28;20034;-64
2021/11/16 05:52:58;;;;;;;97.88;36.67;;;5.50;99.90;;;;;;5058327;28;20039;-64
2021/11/16 05:55:23;;;;;;;106.07;37.28;;;5.40;99.90;;;;;;5040578;28;20046;-63
2021/11/16 05:57:50;;;;;;;97.07;35.63;;;5.50;99.90;;;;;;5057248;28;20029;-64
2021/11/16 06:00:16;;;;;;;91.38;34.95;;;5.50;99.90;;;;;;5057149;28;20044;-63
2021/11/16 06:02:41;;;;;;;91.35;35.83;;;5.40;99.90;;;;;;5057397;28;20044;-64
2021/11/16 06:05:07;;;;;;;100.28;36.13;;;5.40;99.90;;;;;;5057019;28;20161;-63
2021/11/16 06:07:33;;;;;;;98.60;37.70;;;5.40;99.90;;;;;;5057440;28;20051;-64
2021/11/16 06:09:58;;;;;;;96.35;36.42;;;5.30;99.90;;;;;;5057619;28;20040;-63
2021/11/16 06:12:24;;;;;;;93.78;35.17;;;5.30;99.90;;;;;;5058220;28;20790;-63
2021/11/16 06:14:49;;;;;;;98.82;35.95;;;5.40;99.90;;;;;;5058157;28;20419;-63
2021/11/16 06:17:15;;;;;;;87.85;33.47;;;5.40;99.90;;;;;;5056761;28;20032;-63
2021/11/16 06:19:40;;;;;;;91.30;34.22;;;5.40;99.90;;;;;;5057991;28;20081;-63
2021/11/16 06:22:10;;;;;;;91.13;34.92;;;5.40;99.90;;;;;;5057283;28;20033;-63
2021/11/16 06:24:36;;;;;;;88.68;33.90;;;5.30;99.90;;;;;;5057072;28;20028;-63
2021/11/16 06:27:01;;;;;;;98.15;36.33;;;5.40;99.90;;;;;;5057349;28;20081;-63
2021/11/16 06:29:27;;;;;;;101.70;36.28;;;5.30;99.90;;;;;;5056658;28;20032;-64
2021/11/16 06:31:53;;;;;;;92.85;35.35;;;5.30;99.90;;;;;;5055976;28;20024;-69
2021/11/16 06:34:18;;;;;;;91.30;35.63;;;5.40;99.90;;;;;;5055386;28;20122;-63
2021/11/16 06:36:44;;;;;;;89.65;34.40;;;5.40;99.90;;;;;;5056352;28;20056;-63
2021/11/16 06:39:09;;;;;;;97.32;34.97;;;5.40;99.90;;;;;;5056556;28;20036;-63
2021/11/16 06:41:35;;;;;;;90.15;33.00;;;5.40;99.90;;;;;;5057414;28;20028;-64
2021/11/16 06:44:01;;;;;;;88.05;32.67;;;5.50;99.90;;;;;;5056466;28;20029;-63
2021/11/16 06:46:30;;;;;;;82.45;33.10;;;5.50;99.90;;;;;;5058279;28;20622;-64
2021/11/16 06:48:55;;;;;;;90.35;33.22;;;5.40;99.90;;;;;;5057420;28;20025;-64
2021/11/16 06:51:21;;;;;;;84.97;32.97;;;5.40;99.90;;;;;;5058108;28;20078;-63
2021/11/16 06:53:46;;;;;;;78.70;31.98;;;5.30;99.90;;;;;;5058347;28;20036;-63
2021/11/16 06:56:12;;;;;;;86.70;31.65;;;5.40;99.90;;;;;;5057829;28;20081;-64
2021/11/16 06:58:37;;;;;;;89.10;32.17;;;5.30;99.90;;;;;;5058192;28;20143;-64
2021/11/16 07:01:03;;;;;;;80.47;32.25;;;5.30;99.90;;;;;;5058540;28;20047;-63
2021/11/16 07:03:29;;;;;;;92.63;34.42;;;5.40;99.90;;;;;;5058911;28;20484;-71
2021/11/16 07:05:56;;;;;;;90.53;34.58;;;5.40;99.90;;;;;;5040897;28;20076;-71
2021/11/16 07:08:21;;;;;;;87.10;33.15;;;5.50;99.90;;;;;;5058581;28;20028;-63
2021/11/16 07:10:47;;;;;;;87.43;32.75;;;5.40;99.90;;;;;;5059101;28;20713;-63
2021/11/16 07:13:12;;;;;;;81.72;32.80;;;5.40;99.90;;;;;;5039883;28;20029;-63
2021/11/16 07:15:38;;;;;;;79.65;31.02;;;5.40;99.90;;;;;;5058912;28;20068;-63
2021/11/16 07:18:03;;;;;;;84.38;32.50;;;5.30;99.90;;;;;;5058909;28;20790;-63
2021/11/16 07:20:29;;;;;;;85.05;31.90;;;5.30;99.90;;;;;;5057782;28;20115;-63
2021/11/16 07:22:56;;;;;;;89.85;33.42;;;5.30;99.90;;;;;;5058449;28;20033;-63
2021/11/16 07:25:21;;;;;;;84.63;32.38;;;5.40;99.90;;;;;;5057540;28;20500;-63
2021/11/16 07:27:47;;;;;;;82.55;32.65;;;5.40;99.90;;;;;;5057868;28;20046;-63
2021/11/16 07:30:12;;;;;;;85.03;32.80;;;5.40;99.90;;;;;;5058240;28;20047;-63
2021/11/16 07:32:38;;;;;;;85.25;31.35;;;5.40;99.90;;;;;;5039408;28;20041;-62
2021/11/16 07:35:04;;;;;;;89.47;33.60;;;5.30;99.90;;;;;;5058036;28;20075;-62
2021/11/16 07:37:29;;;;;;;90.80;32.45;;;5.40;99.90;;;;;;5057405;28;20028;-63
2021/11/16 07:39:55;;;;;;;97.90;37.38;;;5.40;99.90;;;;;;5057716;28;20695;-63
2021/11/16 07:42:20;;;;;;;104.10;37.40;;;5.40;99.90;;;;;;5058191;28;20029;-62
2021/11/16 07:44:46;;;;;;;83.78;32.45;;;5.50;99.90;;;;;;5057311;28;20071;-62
2021/11/16 07:47:11;;;;;;;95.97;35.38;;;5.50;99.90;;;;;;5057708;28;20047;-62
2021/11/16 07:49:37;;;;;;;85.30;32.05;;;5.50;99.90;;;;;;5058530;28;20036;-62
2021/11/16 07:52:02;;;;;;;85.07;33.22;;;5.50;99.90;;;;;;5057829;28;20492;-63
2021/11/16 07:54:28;;;;;;;86.75;32.63;;;5.60;99.90;;;;;;5058228;28;20048;-62
2021/11/16 07:56:53;;;;;;;81.47;30.73;;;5.60;99.90;;;;;;5055268;28;20021;-63
2021/11/16 07:59:19;;;;;;;86.38;29.88;;;5.70;99.90;;;;;;5057899;28;20050;-62
2021/11/16 08:02:01;;;;;;;82.00;29.90;;;5.70;99.90;;;;;;5040233;28;20055;-62
2021/11/16 08:04:39;;;;;;;76.03;29.38;;;5.70;99.90;;;;;;5059548;28;20809;-62
2021/11/16 08:07:26;;;;;;;76.70;30.73;;;5.70;99.90;;;;;;5061715;28;20167;-62
2021/11/16 08:09:54;;;;;;;83.50;30.63;;;5.80;99.90;;;;;;5061832;28;20109;-62
2021/11/16 08:12:30;;;;;;;72.00;28.77;;;5.90;99.90;;;;;;5059048;28;20043;-62
2021/11/16 08:14:55;;;;;;;74.40;30.17;;;5.90;99.90;;;;;;5060229;28;20043;-63
2021/11/16 08:17:21;;;;;;;78.53;30.88;;;6.10;99.90;;;;;;5046340;28;20036;-63
2021/11/16 08:19:46;;;;;;;79.90;28.63;;;6.10;99.90;;;;;;5060691;28;20032;-63
2021/11/16 08:22:12;;;;;;;80.03;30.35;;;6.20;99.90;;;;;;5059435;28;20028;-63
2021/11/16 08:24:37;;;;;;;77.25;30.42;;;6.30;99.90;;;;;;5059747;28;20047;-63
2021/11/16 08:27:03;;;;;;;80.05;30.70;;;6.00;99.90;;;;;;5058373;28;20095;-63
2021/11/16 08:29:28;;;;;;;80.13;31.33;;;6.10;99.90;;;;;;5058771;28;20495;-62
2021/11/16 08:31:59;;;;;;;73.55;29.10;;;6.00;99.90;;;;;;5060211;28;20036;-62
2021/11/16 08:34:24;;;;;;;77.47;28.23;;;6.10;99.90;;;;;;5058810;28;20044;-62
2021/11/16 08:36:50;;;;;;;80.30;29.67;;;6.20;99.90;;;;;;5041820;28;20029;-62
2021/11/16 08:39:15;;;;;;;73.07;29.65;;;6.30;99.90;;;;;;5060354;28;20036;-63
2021/11/16 08:41:41;;;;;;;83.28;32.42;;;6.30;99.90;;;;;;5059743;28;20139;-63
2021/11/16 08:44:06;;;;;;;74.05;30.63;;;6.40;99.90;;;;;;5059833;28;20047;-62
2021/11/16 08:46:32;;;;;;;79.55;31.83;;;6.60;99.90;;;;;;5059939;28;20030;-62
2021/11/16 08:48:58;;;;;;;79.07;30.52;;;6.50;99.90;;;;;;5060489;28;20403;-62
2021/11/16 08:51:23;;;;;;;77.55;30.20;;;6.40;99.90;;;;;;5060591;28;20043;-63
2021/11/16 08:53:49;;;;;;;79.53;30.55;;;6.30;99.90;;;;;;5060320;28;20045;-62
2021/11/16 08:56:14;;;;;;;83.20;32.05;;;6.40;99.90;;;;;;5060886;28;20029;-63
2021/11/16 08:58:40;;;;;;;86.85;33.30;;;6.20;99.90;;;;;;5060509;28;20075;-62
2021/11/16 09:01:05;;;;;;;79.97;31.90;;;6.30;99.90;;;;;;5060122;28;20059;-62
2021/11/16 09:03:31;;;;;;;86.45;32.65;;;6.40;99.90;;;;;;5037633;28;20037;-62
2021/11/16 09:05:57;;;;;;;80.15;32.05;;;6.40;99.90;;;;;;5059509;28;20516;-62
2021/11/16 09:08:25;;;;;;;78.68;31.98;;;6.40;99.90;;;;;;5058950;28;20040;-63
2021/11/16 09:10:50;;;;;;;86.35;32.08;;;6.60;99.90;;;;;;5060829;28;20036;-63
2021/11/16 09:13:16;;;;;;;92.50;35.88;;;6.70;99.90;;;;;;5059570;28;20786;-63
2021/11/16 09:15:41;;;;;;;87.78;34.50;;;6.70;99.90;;;;;;5040441;28;20123;-63
2021/11/16 09:18:07;;;;;;;85.57;32.75;;;6.40;99.90;;;;;;5041553;28;20068;-63
2021/11/16 09:20:32;;;;;;;1003.25;563.92;;;6.90;99.90;;;;;;5059694;28;20032;-62
2021/11/16 09:22:58;;;;;;;94.55;35.85;;;6.90;99.90;;;;;;5060665;28;20938;-63
2021/11/16 09:25:24;;;;;;;85.38;33.78;;;6.70;99.90;;;;;;5059598;28;20147;-63
2021/11/16 09:27:58;;;;;;;78.38;31.05;;;6.80;99.90;;;;;;5059434;28;20454;-62
2021/11/16 09:30:23;;;;;;;82.82;33.03;;;6.90;99.90;;;;;;5056613;28;20050;-62
2021/11/16 09:32:49;;;;;;;88.10;33.25;;;6.70;99.90;;;;;;5059709;28;20416;-63
2021/11/16 09:35:15;;;;;;;87.38;32.15;;;6.70;99.90;;;;;;5059599;28;20524;-63
2021/11/16 09:37:43;;;;;;;93.38;33.42;;;6.70;99.90;;;;;;5059015;28;20040;-63
2021/11/16 09:40:08;;;;;;;80.78;31.95;;;6.60;99.90;;;;;;5059859;28;20098;-63
2021/11/16 09:42:34;;;;;;;82.15;31.15;;;6.60;99.90;;;;;;5060432;28;20032;-62
2021/11/16 09:45:03;;;;;;;84.72;33.03;;;6.80;99.90;;;;;;5059279;28;20140;-63
2021/11/16 09:47:29;;;;;;;77.43;31.30;;;6.80;99.90;;;;;;5059133;28;20139;-62
2021/11/16 09:49:54;;;;;;;78.82;32.35;;;6.90;99.90;;;;;;5039751;28;20110;-63
2021/11/16 09:52:20;;;;;;;88.00;34.28;;;7.00;99.90;;;;;;5060473;28;20036;-63
2021/11/16 09:54:46;;;;;;;78.10;32.15;;;7.10;99.90;;;;;;5060712;28;20024;-63
2021/11/16 09:57:15;;;;;;;86.25;32.92;;;7.20;99.90;;;;;;5057591;28;20126;-63
2021/11/16 09:59:40;;;;;;;79.10;31.45;;;7.50;99.90;;;;;;5041018;28;20779;-62
2021/11/16 10:02:06;;;;;;;82.55;32.45;;;7.40;99.90;;;;;;5063662;28;20059;-62
2021/11/16 10:04:35;;;;;;;79.65;31.67;;;7.50;99.90;;;;;;5057423;28;20063;-62
2021/11/16 10:07:01;;;;;;;76.70;30.67;;;7.60;99.90;;;;;;5058343;28;20059;-62
2021/11/16 10:09:26;;;;;;;78.50;32.63;;;7.50;99.90;;;;;;5057699;28;20024;-62
2021/11/16 10:11:52;;;;;;;79.35;32.50;;;7.60;99.90;;;;;;5057155;28;20682;-62
2021/11/16 10:14:17;;;;;;;82.72;30.90;;;7.70;99.90;;;;;;5058246;28;20041;-62
2021/11/16 10:16:43;;;;;;;73.97;30.80;;;7.70;99.90;;;;;;5054638;28;20036;-62
2021/11/16 10:19:08;;;;;;;75.45;30.08;;;7.90;99.90;;;;;;5058420;28;20033;-62
2021/11/16 10:21:34;;;;;;;72.72;29.33;;;7.80;99.90;;;;;;5059770;28;20506;-62
2021/11/16 10:24:00;;;;;;;80.13;31.63;;;7.90;99.90;;;;;;5039101;28;20039;-62
2021/11/16 10:26:26;;;;;;;71.05;29.30;;;8.00;99.90;;;;;;5059049;28;20408;-62
2021/11/16 10:28:51;;;;;;;81.00;30.50;;;8.10;99.90;;;;;;5058832;28;20033;-62
2021/11/16 10:31:16;;;;;;;80.53;31.85;;;7.90;99.90;;;;;;5058950;28;20036;-62
2021/11/16 10:33:42;;;;;;;80.32;30.08;;;7.70;99.90;;;;;;5038473;28;20059;-62
2021/11/16 10:36:08;;;;;;;75.70;30.90;;;7.60;99.90;;;;;;5058659;28;20091;-62
2021/11/16 10:38:33;;;;;;;83.50;32.10;;;7.60;99.90;;;;;;5040371;28;20123;-62
2021/11/16 10:40:59;;;;;;;72.95;29.70;;;7.60;99.90;;;;;;5058444;28;20033;-62
2021/11/16 10:43:24;;;;;;;75.07;29.92;;;7.60;99.90;;;;;;5058238;28;20059;-62
2021/11/16 10:45:50;;;;;;;82.95;31.30;;;7.80;99.90;;;;;;5058613;28;20040;-62
2021/11/16 10:48:17;;;;;;;77.03;30.08;;;7.90;99.90;;;;;;5057229;28;20165;-62
2021/11/16 10:50:45;;;;;;;75.05;29.55;;;7.80;99.90;;;;;;5056678;28;20067;-62
2021/11/16 10:53:11;;;;;;;84.45;31.33;;;7.80;99.90;;;;;;5058491;28;20063;-62
2021/11/16 10:55:36;;;;;;;80.72;33.65;;;8.00;99.90;;;;;;5057724;28;20552;-63
2021/11/16 10:58:06;;;;;;;78.82;31.58;;;8.10;99.90;;;;;;5057953;28;20029;-62
2021/11/16 11:00:31;;;;;;;75.00;30.15;;;8.10;99.90;;;;;;5058484;28;20582;-62
2021/11/16 11:02:57;;;;;;;175.55;73.88;;;7.90;99.90;;;;;;5039831;28;20476;-62
2021/11/16 11:05:23;;;;;;;85.45;33.78;;;7.90;99.90;;;;;;5058265;28;20126;-62
2021/11/16 11:07:48;;;;;;;73.03;29.10;;;7.90;99.90;;;;;;5057919;28;20110;-62
2021/11/16 11:10:14;;;;;;;79.30;29.30;;;8.00;99.90;;;;;;5057410;28;20041;-62
2021/11/16 11:12:39;;;;;;;70.80;29.00;;;7.90;99.90;;;;;;5058148;28;20036;-62
2021/11/16 11:15:05;;;;;;;70.65;30.17;;;7.80;99.90;;;;;;5056513;28;20775;-62
2021/11/16 11:17:30;;;;;;;81.18;31.83;;;7.70;99.90;;;;;;5055831;28;20085;-62
2021/11/16 11:19:56;;;;;;;73.00;29.63;;;7.90;99.90;;;;;;5056973;28;20063;-62
2021/11/16 11:22:23;;;;;;;76.40;29.98;;;8.00;99.90;;;;;;5038294;28;20025;-62
2021/11/16 11:25:03;;;;;;;76.07;29.88;;;8.10;99.90;;;;;;5056845;28;20040;-62
2021/11/16 11:27:31;;;;;;;71.93;28.73;;;8.10;99.90;;;;;;5057961;28;20115;-62
2021/11/16 11:29:59;;;;;;;88.03;37.95;;;8.20;99.90;;;;;;5056991;28;20040;-62
2021/11/16 11:32:25;;;;;;;76.78;30.77;;;8.20;99.90;;;;;;5054709;28;20035;-62
2021/11/16 11:34:51;;;;;;;76.80;29.80;;;8.20;99.90;;;;;;5056995;28;20036;-63
2021/11/16 11:37:17;;;;;;;75.20;30.65;;;8.20;99.90;;;;;;5057434;28;20116;-63
2021/11/16 11:39:42;;;;;;;74.35;28.33;;;8.30;99.90;;;;;;5056402;28;20082;-63
2021/11/16 11:42:12;;;;;;;63.03;27.45;;;8.20;99.90;;;;;;5057238;28;20486;-62
2021/11/16 11:44:45;;;;;;;72.70;29.65;;;8.20;99.90;;;;;;5056082;28;20041;-62
2021/11/16 11:47:11;;;;;;;79.35;30.38;;;8.30;99.90;;;;;;5038205;28;20403;-62
2021/11/16 11:49:37;;;;;;;73.93;28.83;;;8.20;99.90;;;;;;5057014;28;20035;-63
2021/11/16 11:52:02;;;;;;;72.90;30.52;;;8.00;99.90;;;;;;5058289;28;20048;-63
2021/11/16 11:54:28;;;;;;;74.85;29.65;;;8.00;99.90;;;;;;5056268;28;20119;-63
2021/11/16 11:56:54;;;;;;;74.40;29.50;;;8.00;99.90;;;;;;5057221;28;20140;-62
2021/11/16 11:59:20;;;;;;;81.40;30.65;;;7.90;99.90;;;;;;5056764;28;20024;-63
2021/11/16 12:01:46;;;;;;;82.05;31.50;;;7.90;99.90;;;;;;5057102;28;20130;-64
2021/11/16 12:04:11;;;;;;;72.20;29.85;;;8.10;99.90;;;;;;5039542;28;20830;-62
2021/11/16 12:06:37;;;;;;;79.30;29.67;;;8.00;99.90;;;;;;5057325;28;20033;-68
2021/11/16 12:09:02;;;;;;;69.20;28.65;;;8.00;99.90;;;;;;5057297;28;20036;-68
2021/11/16 12:11:28;;;;;;;72.65;29.88;;;8.10;99.90;;;;;;5058363;28;20503;-68
2021/11/16 12:13:53;;;;;;;74.97;29.98;;;8.10;99.90;;;;;;5057173;28;20090;-68
2021/11/16 12:16:21;;;;;;;70.15;29.55;;;8.20;99.90;;;;;;5057455;28;20389;-68
2021/11/16 12:18:46;;;;;;;75.55;29.38;;;8.30;99.90;;;;;;5056129;28;20113;-68
2021/11/16 12:21:12;;;;;;;72.75;29.25;;;8.40;99.90;;;;;;5056775;28;20036;-68
2021/11/16 12:23:38;;;;;;;81.20;30.17;;;8.20;99.90;;;;;;5056301;28;20060;-68
2021/11/16 12:26:03;;;;;;;71.68;30.05;;;8.20;99.90;;;;;;5036007;28;20161;-68
2021/11/16 12:28:28;;;;;;;75.35;29.95;;;8.20;99.90;;;;;;5054205;28;20048;-69
2021/11/16 12:30:54;;;;;;;77.57;31.25;;;8.30;99.90;;;;;;5057522;28;20032;-68
2021/11/16 12:33:20;;;;;;;73.57;28.73;;;8.10;99.90;;;;;;5056727;28;20028;-68
2021/11/16 12:35:45;;;;;;;74.78;30.10;;;8.20;99.90;;;;;;5057469;28;20035;-68
2021/11/16 12:38:11;;;;;;;72.22;28.75;;;8.20;99.90;;;;;;5057192;28;20032;-68
2021/11/16 12:40:41;;;;;;;75.78;31.70;;;8.20;99.90;;;;;;5055507;28;20854;-68
2021/11/16 12:43:07;;;;;;;76.22;31.27;;;8.30;99.90;;;;;;5039325;28;20036;-68